MSC Federica — HPQE — position and weather

sailwx.info

Track history (hours):
 
Tides and Currents Weather Stations Pressure Air Temp Water Temp Dewpoint Dewpoint Depression Visibility Wind Speed Wind Dir Waves Ship Positions

MSC Federica

Last reported at 2016-May-23 19:22 UTC. Time now 2016-May-26 04:38 UTC.
Position N 26°17' W 079°22'.

Length 294 m; draft 9 m.

Type: Cargo ship. MMSI: 357363000.

Date/timePositionNaut miles runAvg speedWind from/ knotsBaromVisibWave heightAir tempDewpointWater temp
2016-May-23 19:22N 26°17' W 079°22'1316.5
2016-May-23 18:33N 26°12' W 079°37'1616.4
2016-May-23 17:33N 26°08' W 079°54'1211.6
2016-May-23 16:33N 26°05' W 080°07'1 1.1
2016-May-23 15:28N 26°04' W 080°07'0 0.0
2016-May-23 14:31N 26°04' W 080°07'0 0.0
2016-May-23 13:31N 26°04' W 080°07'0 0.0
2016-May-23 12:31N 26°04' W 080°07'0 0.0
2016-May-23 11:31N 26°04' W 080°07'0 0.0
2016-May-23 10:31N 26°04' W 080°07'0 0.0
2016-May-23 09:31N 26°04' W 080°07'0 0.0
2016-May-23 08:31N 26°04' W 080°07'1 1.0
2016-May-23 07:34N 26°05' W 080°07'6 5.5
2016-May-23 06:33N 26°06' W 080°01'1312.6
2016-May-23 05:33N 26°19' W 079°59'1211.9
2016-May-23 04:33N 26°31' W 079°58'1010.4
2016-May-23 03:33N 26°41' W 079°57'1010.3
2016-May-23 02:34N 26°51' W 079°56'1010.4
2016-May-23 01:33N 27°02' W 079°56'  
2016-May-19 03:32N 39°23' W 074°01'1717.6
2016-May-19 02:33N 39°40' W 073°56'1717.4
2016-May-19 01:34N 39°57' W 073°53'1817.2
2016-May-19 00:32N 40°15' W 073°50'1413.9
2016-May-18 23:33N 40°28' W 073°52'1413.7
2016-May-18 22:33N 40°39' W 074°04'4 4.3
2016-May-18 21:33N 40°41' W 074°08'1 0.9
2016-May-18 20:33N 40°41' W 074°09'0 0.0
2016-May-18 19:33N 40°41' W 074°09'0 0.0
2016-May-18 18:33N 40°41' W 074°09'0 0.0
2016-May-18 17:33N 40°41' W 074°09'0 0.0
2016-May-18 16:30N 40°41' W 074°09'0 0.0
2016-May-18 15:33N 40°41' W 074°09'0 0.2
2016-May-18 14:30N 40°41' W 074°09'0 0.0
2016-May-18 13:24N 40°41' W 074°09'0 0.0
2016-May-18 12:24N 40°41' W 074°09'0 0.0
2016-May-18 11:33N 40°41' W 074°09'0 0.0
2016-May-18 10:33N 40°41' W 074°09'0 0.0
2016-May-18 05:21N 40°41' W 074°09'0 0.0
2016-May-18 04:33N 40°41' W 074°09'0 0.0
2016-May-18 03:33N 40°41' W 074°09'0 0.0
2016-May-18 01:21N 40°41' W 074°09'0 0.0
2016-May-18 00:33N 40°41' W 074°09'0 0.0
2016-May-17 23:33N 40°41' W 074°09'0 0.0
2016-May-17 22:33N 40°41' W 074°09'0 0.0
2016-May-17 21:33N 40°41' W 074°09'0 0.0
2016-May-17 20:33N 40°41' W 074°09'0 0.0
2016-May-17 19:21N 40°41' W 074°09'0 0.0
2016-May-17 18:33N 40°41' W 074°09'0 0.0
2016-May-17 17:30N 40°41' W 074°09'0 0.0
2016-May-17 16:33N 40°41' W 074°09'0 0.0
2016-May-17 15:30N 40°41' W 074°09'0 0.0
2016-May-17 14:33N 40°41' W 074°09'0 0.0
2016-May-17 13:33N 40°41' W 074°09'0 0.0
2016-May-17 12:33N 40°41' W 074°09'0 0.0
2016-May-17 11:33N 40°41' W 074°09'0 0.0
2016-May-17 10:27N 40°41' W 074°09'0 0.0
2016-May-17 09:33N 40°41' W 074°09'0 0.0
2016-May-17 08:33N 40°41' W 074°09'0 0.0
2016-May-17 07:33N 40°41' W 074°09'0 0.0
2016-May-17 06:33N 40°41' W 074°09'1 0.8
2016-May-17 05:33N 40°41' W 074°08'4 4.3
2016-May-17 04:34N 40°39' W 074°03'1010.2
2016-May-17 03:33N 40°30' W 073°56'20 9.8
2016-May-17 01:33N 40°12' W 073°45'1413.2
2016-May-17 00:28N 39°58' W 073°43'1515.9
2016-May-16 23:33N 39°44' W 073°41'1515.2
2016-May-16 22:34N 39°29' W 073°48'1716.8
2016-May-16 21:33N 39°16' W 074°02'5613.9
2016-May-16 17:33N 38°50' W 075°05'1414.6
2016-May-16 16:33N 39°04' W 075°10'1717.2
2016-May-16 15:33N 39°18' W 075°23'1716.5
2016-May-16 14:33N 39°33' W 075°33'1212.1
2016-May-16 13:34N 39°44' W 075°30'9 9.5
2016-May-16 12:34N 39°51' W 075°21'9 8.8
2016-May-16 11:33N 39°53' W 075°09'2 1.5
2016-May-16 10:32N 39°54' W 075°08'0 0.0
2016-May-16 09:33N 39°54' W 075°08'0 0.0
2016-May-16 08:32N 39°54' W 075°08'0 0.0
2016-May-16 07:33N 39°54' W 075°08'0 0.0
2016-May-16 06:32N 39°54' W 075°08'0 0.0
2016-May-16 05:32N 39°54' W 075°08'0 0.0
2016-May-16 04:32N 39°54' W 075°08'0 0.0
2016-May-16 03:32N 39°54' W 075°08'0 0.0
2016-May-16 02:32N 39°54' W 075°08'0 0.0
2016-May-16 01:32N 39°54' W 075°08'0 0.0
2016-May-16 00:32N 39°54' W 075°08'0 0.0
2016-May-15 23:32N 39°54' W 075°08'0 0.3
2016-May-15 22:33N 39°54' W 075°08'7 7.2
2016-May-15 21:33N 39°51' W 075°17'1110.8
2016-May-15 20:34N 39°46' W 075°29'1212.3
2016-May-15 19:34N 39°33' W 075°33'1414.4
2016-May-15 18:34N 39°20' W 075°25'1716.6
2016-May-15 17:34N 39°07' W 075°13'30010.0
2016-May-14 11:33N 34°07' W 075°34'1919.4
2016-May-14 10:33N 33°50' W 075°43'1919.0
2016-May-14 09:34N 33°33' W 075°53'  
Track history (hours):
 
Tides and Currents Weather Stations Pressure Air Temp Water Temp Dewpoint Dewpoint Depression Visibility Wind Speed Wind Dir Waves Ship Positions

MSC Federica

Last reported at 2016-May-23 19:22 UTC. Time now 2016-May-26 04:38 UTC.
Position N 26°17' W 079°22'.

Length 294 m; draft 9 m.

Type: Cargo ship. MMSI: 357363000.

Date/timePositionNaut miles runAvg speedWind from/ knotsBaromVisibWave heightAir tempDewpointWater temp
2016-May-23 19:22N 26°17' W 079°22'1316.5
2016-May-23 18:33N 26°12' W 079°37'1616.4
2016-May-23 17:33N 26°08' W 079°54'1211.6
2016-May-23 16:33N 26°05' W 080°07'1 1.1
2016-May-23 15:28N 26°04' W 080°07'0 0.0
2016-May-23 14:31N 26°04' W 080°07'0 0.0
2016-May-23 13:31N 26°04' W 080°07'0 0.0
2016-May-23 12:31N 26°04' W 080°07'0 0.0
2016-May-23 11:31N 26°04' W 080°07'0 0.0
2016-May-23 10:31N 26°04' W 080°07'0 0.0
2016-May-23 09:31N 26°04' W 080°07'0 0.0
2016-May-23 08:31N 26°04' W 080°07'1 1.0
2016-May-23 07:34N 26°05' W 080°07'6 5.5
2016-May-23 06:33N 26°06' W 080°01'1312.6
2016-May-23 05:33N 26°19' W 079°59'1211.9
2016-May-23 04:33N 26°31' W 079°58'1010.4
2016-May-23 03:33N 26°41' W 079°57'1010.3
2016-May-23 02:34N 26°51' W 079°56'1010.4
2016-May-23 01:33N 27°02' W 079°56'  
2016-May-19 03:32N 39°23' W 074°01'1717.6
2016-May-19 02:33N 39°40' W 073°56'1717.4
2016-May-19 01:34N 39°57' W 073°53'1817.2
2016-May-19 00:32N 40°15' W 073°50'1413.9
2016-May-18 23:33N 40°28' W 073°52'1413.7
2016-May-18 22:33N 40°39' W 074°04'4 4.3
2016-May-18 21:33N 40°41' W 074°08'1 0.9
2016-May-18 20:33N 40°41' W 074°09'0 0.0
2016-May-18 19:33N 40°41' W 074°09'0 0.0
2016-May-18 18:33N 40°41' W 074°09'0 0.0
2016-May-18 17:33N 40°41' W 074°09'0 0.0
2016-May-18 16:30N 40°41' W 074°09'0 0.0
2016-May-18 15:33N 40°41' W 074°09'0 0.2
2016-May-18 14:30N 40°41' W 074°09'0 0.0
2016-May-18 13:24N 40°41' W 074°09'0 0.0
2016-May-18 12:24N 40°41' W 074°09'0 0.0
2016-May-18 11:33N 40°41' W 074°09'0 0.0
2016-May-18 10:33N 40°41' W 074°09'0 0.0
2016-May-18 05:21N 40°41' W 074°09'0 0.0
2016-May-18 04:33N 40°41' W 074°09'0 0.0
2016-May-18 03:33N 40°41' W 074°09'0 0.0
2016-May-18 01:21N 40°41' W 074°09'0 0.0
2016-May-18 00:33N 40°41' W 074°09'0 0.0
2016-May-17 23:33N 40°41' W 074°09'0 0.0
2016-May-17 22:33N 40°41' W 074°09'0 0.0
2016-May-17 21:33N 40°41' W 074°09'0 0.0
2016-May-17 20:33N 40°41' W 074°09'0 0.0
2016-May-17 19:21N 40°41' W 074°09'0 0.0
2016-May-17 18:33N 40°41' W 074°09'0 0.0
2016-May-17 17:30N 40°41' W 074°09'0 0.0
2016-May-17 16:33N 40°41' W 074°09'0 0.0
2016-May-17 15:30N 40°41' W 074°09'0 0.0
2016-May-17 14:33N 40°41' W 074°09'0 0.0
2016-May-17 13:33N 40°41' W 074°09'0 0.0
2016-May-17 12:33N 40°41' W 074°09'0 0.0
2016-May-17 11:33N 40°41' W 074°09'0 0.0
2016-May-17 10:27N 40°41' W 074°09'0 0.0
2016-May-17 09:33N 40°41' W 074°09'0 0.0
2016-May-17 08:33N 40°41' W 074°09'0 0.0
2016-May-17 07:33N 40°41' W 074°09'0 0.0
2016-May-17 06:33N 40°41' W 074°09'1 0.8
2016-May-17 05:33N 40°41' W 074°08'4 4.3
2016-May-17 04:34N 40°39' W 074°03'1010.2
2016-May-17 03:33N 40°30' W 073°56'20 9.8
2016-May-17 01:33N 40°12' W 073°45'1413.2
2016-May-17 00:28N 39°58' W 073°43'1515.9
2016-May-16 23:33N 39°44' W 073°41'1515.2
2016-May-16 22:34N 39°29' W 073°48'1716.8
2016-May-16 21:33N 39°16' W 074°02'5613.9
2016-May-16 17:33N 38°50' W 075°05'1414.6
2016-May-16 16:33N 39°04' W 075°10'1717.2
2016-May-16 15:33N 39°18' W 075°23'1716.5
2016-May-16 14:33N 39°33' W 075°33'1212.1
2016-May-16 13:34N 39°44' W 075°30'9 9.5
2016-May-16 12:34N 39°51' W 075°21'9 8.8
2016-May-16 11:33N 39°53' W 075°09'2 1.5
2016-May-16 10:32N 39°54' W 075°08'0 0.0
2016-May-16 09:33N 39°54' W 075°08'0 0.0
2016-May-16 08:32N 39°54' W 075°08'0 0.0
2016-May-16 07:33N 39°54' W 075°08'0 0.0
2016-May-16 06:32N 39°54' W 075°08'0 0.0
2016-May-16 05:32N 39°54' W 075°08'0 0.0
2016-May-16 04:32N 39°54' W 075°08'0 0.0
2016-May-16 03:32N 39°54' W 075°08'0 0.0
2016-May-16 02:32N 39°54' W 075°08'0 0.0
2016-May-16 01:32N 39°54' W 075°08'0 0.0
2016-May-16 00:32N 39°54' W 075°08'0 0.0
2016-May-15 23:32N 39°54' W 075°08'0 0.3
2016-May-15 22:33N 39°54' W 075°08'7 7.2
2016-May-15 21:33N 39°51' W 075°17'1110.8
2016-May-15 20:34N 39°46' W 075°29'1212.3
2016-May-15 19:34N 39°33' W 075°33'1414.4
2016-May-15 18:34N 39°20' W 075°25'1716.6
2016-May-15 17:34N 39°07' W 075°13'30010.0
2016-May-14 11:33N 34°07' W 075°34'1919.4
2016-May-14 10:33N 33°50' W 075°43'1919.0
2016-May-14 09:34N 33°33' W 075°53'  

Dump ship's entire track history